createdAt,value
2022-10-11T00:00:45.623Z,102017.28
2022-10-11T00:03:28.812Z,102010.69
2022-10-11T00:06:12.344Z,102025.75
2022-10-11T00:08:55.266Z,102022.78
2022-10-11T00:11:55.787Z,102030.09
2022-10-11T00:14:39.131Z,102026.78
2022-10-11T00:17:21.428Z,102035.34
2022-10-11T00:20:05.346Z,102027.34
2022-10-11T00:22:49.393Z,102038.19
2022-10-11T00:25:33.080Z,102044.00
2022-10-11T00:28:15.629Z,102026.34
2022-10-11T00:30:58.197Z,102038.63
2022-10-11T00:33:41.799Z,102041.41
2022-10-11T00:36:24.857Z,102049.50
2022-10-11T00:39:07.520Z,102031.69
2022-10-11T00:41:49.953Z,102044.66
2022-10-11T00:44:33.258Z,102048.84
2022-10-11T00:47:18.248Z,102052.28
2022-10-11T00:50:01.112Z,102058.28
2022-10-11T00:52:44.234Z,102055.44
2022-10-11T00:55:28.661Z,102042.41
2022-10-11T00:58:11.847Z,102053.97
2022-10-11T01:00:54.416Z,102043.75
2022-10-11T01:44:43.040Z,102089.25
2022-10-11T03:04:42.302Z,102106.31
2022-10-11T03:17:49.569Z,102126.69
2022-10-11T05:41:49.760Z,102266.03
2022-10-11T05:55:03.443Z,102274.47
2022-10-11T06:08:10.843Z,102271.56
2022-10-11T06:21:24.059Z,102288.91
2022-10-11T06:34:36.966Z,102308.63
2022-10-11T06:48:02.197Z,102320.22
2022-10-11T07:01:26.291Z,102345.16
2022-10-11T07:14:38.513Z,102348.88
2022-10-11T07:27:59.728Z,102384.91
2022-10-11T07:41:24.696Z,102386.13
2022-10-11T07:54:49.185Z,102398.03
2022-10-11T08:08:21.757Z,102407.84
2022-10-11T11:11:02.357Z,102436.44
2022-10-11T11:14:27.443Z,102450.75
2022-10-11T11:17:30.476Z,102452.53
2022-10-11T11:20:55.207Z,102445.97
2022-10-11T11:24:02.760Z,102446.00
2022-10-11T11:27:11.157Z,102437.09
2022-10-11T11:30:42.729Z,102437.00
2022-10-11T11:34:22.328Z,102433.38
2022-10-11T11:37:37.466Z,102430.63
2022-10-11T11:40:39.756Z,102442.91
2022-10-11T11:44:05.743Z,102440.03
2022-10-11T11:47:03.749Z,102428.44
2022-10-11T11:50:06.173Z,102417.66
2022-10-11T11:53:05.838Z,102430.25
2022-10-11T11:56:09.467Z,102435.91
2022-10-11T11:59:14.367Z,102422.00
2022-10-11T12:02:33.763Z,102409.66
2022-10-11T12:05:32.705Z,102413.56
2022-10-11T12:08:31.777Z,102412.19
2022-10-11T12:11:35.373Z,102418.38
2022-10-11T12:14:42.112Z,102414.31
2022-10-11T12:17:57.826Z,102413.97
2022-10-11T12:21:06.293Z,102415.16
2022-10-11T12:24:06.705Z,102400.88
2022-10-11T12:27:03.459Z,102405.03
2022-10-11T12:30:00.251Z,102408.03
2022-10-11T12:33:06.747Z,102403.06
2022-10-11T12:36:22.271Z,102403.06
2022-10-11T12:39:19.404Z,102404.72
2022-10-11T12:42:32.509Z,102391.28
2022-10-11T12:45:32.137Z,102401.63
2022-10-11T12:48:35.924Z,102398.59
2022-10-11T12:51:45.960Z,102400.16
2022-10-11T12:55:02.097Z,102389.13
2022-10-11T12:58:18.382Z,102396.38
2022-10-11T13:01:18.707Z,102389.50
2022-10-11T13:04:15.744Z,102386.28
2022-10-11T13:07:14.302Z,102383.44
2022-10-11T13:10:16.591Z,102381.88
2022-10-11T13:13:24.850Z,102375.94
2022-10-11T13:16:26.726Z,102382.34
2022-10-11T13:19:23.944Z,102381.28
2022-10-11T13:22:22.957Z,102369.56
2022-10-11T13:25:35.851Z,102371.56
2022-10-11T13:28:36.320Z,102373.34
2022-10-11T13:31:33.994Z,102357.19
2022-10-11T13:34:35.240Z,102368.34
2022-10-11T13:37:40.547Z,102369.44
2022-10-11T13:40:37.846Z,102357.06
2022-10-11T13:43:34.873Z,102362.66
2022-10-11T13:46:31.680Z,102356.47
2022-10-11T13:49:37.622Z,102357.19
2022-10-11T13:52:34.747Z,102360.63
2022-10-11T13:55:36.316Z,102365.22
2022-10-11T13:58:38.748Z,102365.25
2022-10-11T14:01:40.146Z,102369.28
2022-10-11T14:04:41.260Z,102357.00
2022-10-11T14:07:38.556Z,102361.59
2022-10-11T14:10:35.517Z,102356.63
2022-10-11T14:13:50.787Z,102372.50
2022-10-11T14:16:56.074Z,102366.31
2022-10-11T14:20:11.961Z,102355.16
2022-10-11T14:23:09.657Z,102359.13
2022-10-11T14:26:09.276Z,102362.84
2022-10-11T14:29:26.491Z,102357.03
2022-10-11T14:32:29.095Z,102368.41
2022-10-11T14:35:29.277Z,102370.28
2022-10-11T14:38:26.844Z,102362.06
2022-10-11T14:41:23.556Z,102358.41
2022-10-11T14:44:20.914Z,102361.91
2022-10-11T14:47:17.642Z,102361.41
2022-10-11T14:50:23.198Z,102360.22
2022-10-11T14:53:20.719Z,102375.84
2022-10-11T14:56:21.308Z,102366.94
2022-10-11T14:59:20.331Z,102370.94
2022-10-11T15:02:17.471Z,102371.31
2022-10-11T15:05:14.778Z,102373.28
2022-10-11T15:08:11.462Z,102373.69
2022-10-11T15:11:11.252Z,102372.75
2022-10-11T15:14:09.249Z,102364.56
2022-10-11T15:17:06.497Z,102364.63
2022-10-11T15:20:04.470Z,102362.22
2022-10-11T15:23:01.913Z,102362.44
2022-10-11T15:25:58.550Z,102367.00
2022-10-11T15:28:56.525Z,102370.06
2022-10-11T15:31:54.061Z,102359.75
2022-10-11T15:34:51.531Z,102360.16
2022-10-11T15:37:51.970Z,102362.03
2022-10-11T15:40:48.794Z,102365.25
2022-10-11T15:43:46.844Z,102367.47
2022-10-11T15:46:43.872Z,102370.06
2022-10-11T15:49:40.763Z,102371.16
2022-10-11T15:52:37.965Z,102367.84
2022-10-11T15:55:36.139Z,102368.34
2022-10-11T15:58:38.646Z,102361.06
2022-10-11T16:01:35.821Z,102366.00
2022-10-11T16:04:32.605Z,102359.34
2022-10-11T16:07:29.945Z,102360.59
2022-10-11T16:10:27.051Z,102361.78
2022-10-11T16:13:24.021Z,102373.31
2022-10-11T16:16:21.058Z,102363.09
2022-10-11T16:19:17.486Z,102362.41
2022-10-11T16:22:14.920Z,102362.88
2022-10-11T16:25:11.868Z,102369.75
2022-10-11T16:28:09.099Z,102362.16
2022-10-11T16:31:09.625Z,102371.31
2022-10-11T16:34:06.727Z,102368.59
2022-10-11T16:37:03.540Z,102371.06
2022-10-11T16:40:00.992Z,102371.81
2022-10-11T16:42:57.885Z,102371.44
2022-10-11T16:45:57.712Z,102381.31
2022-10-11T16:48:55.947Z,102372.59
2022-10-11T16:51:53.537Z,102378.38
2022-10-11T16:54:50.929Z,102376.28
2022-10-11T16:57:47.979Z,102381.41
2022-10-11T17:00:45.178Z,102376.88
2022-10-11T17:03:43.077Z,102376.00
2022-10-11T17:06:40.317Z,102375.91
2022-10-11T17:09:43.926Z,102367.94
2022-10-11T17:12:42.970Z,102382.44
2022-10-11T17:15:42.636Z,102387.16
2022-10-11T17:18:39.657Z,102372.41
2022-10-11T17:21:37.008Z,102383.91
2022-10-11T17:24:35.037Z,102378.53
2022-10-11T17:27:31.348Z,102374.34
2022-10-11T17:30:28.590Z,102383.47
2022-10-11T17:33:26.547Z,102374.06
2022-10-11T17:36:27.881Z,102367.84
2022-10-11T17:39:25.837Z,102386.69
2022-10-11T17:42:22.791Z,102381.56
2022-10-11T17:45:19.769Z,102381.91
2022-10-11T17:48:16.781Z,102377.44
2022-10-11T17:51:18.470Z,102389.41
2022-10-11T17:54:16.292Z,102383.28
2022-10-11T17:57:14.127Z,102381.94
2022-10-11T18:00:11.317Z,102381.34
2022-10-11T18:03:09.013Z,102375.34
2022-10-11T18:06:10.846Z,102380.38
2022-10-11T18:09:10.910Z,102384.03
2022-10-11T18:12:08.168Z,102395.16
2022-10-11T18:15:05.233Z,102393.94
2022-10-11T18:18:04.910Z,102380.81
2022-10-11T18:21:01.675Z,102375.56
2022-10-11T18:24:00.410Z,102367.19
2022-10-11T18:26:57.437Z,102374.22
2022-10-11T18:29:54.831Z,102384.03
2022-10-11T18:32:51.999Z,102377.56
2022-10-11T18:35:48.478Z,102383.38
2022-10-11T18:38:47.095Z,102379.38
2022-10-11T18:41:44.578Z,102389.88
2022-10-11T18:44:41.645Z,102392.41
2022-10-11T18:47:38.898Z,102384.38
2022-10-11T18:50:36.068Z,102377.06
2022-10-11T18:53:33.789Z,102385.72
2022-10-11T18:56:31.197Z,102373.38
2022-10-11T18:59:27.763Z,102362.69
2022-10-11T19:02:24.918Z,102358.19
2022-10-11T19:05:21.791Z,102369.41
2022-10-11T19:08:18.696Z,102373.28
2022-10-11T19:11:16.280Z,102375.78
2022-10-11T19:14:15.320Z,102384.84
2022-10-11T19:17:12.915Z,102362.19
2022-10-11T19:20:10.471Z,102363.28
2022-10-11T19:23:08.086Z,102364.22
2022-10-11T19:26:05.792Z,102366.44
2022-10-11T19:29:05.513Z,102373.94
2022-10-11T19:32:03.637Z,102376.59
2022-10-11T19:35:00.800Z,102371.28
2022-10-11T19:37:58.684Z,102373.53
2022-10-11T19:40:55.813Z,102380.56
2022-10-11T19:43:52.909Z,102379.84
2022-10-11T19:46:52.442Z,102375.69
2022-10-11T19:49:51.830Z,102358.03
2022-10-11T19:52:48.988Z,102364.09
2022-10-11T19:55:46.672Z,102366.09
2022-10-11T19:58:44.235Z,102360.34
2022-10-11T20:01:41.443Z,102370.75
2022-10-11T20:04:54.013Z,102368.03
2022-10-11T20:07:51.308Z,102377.19
2022-10-11T20:10:48.904Z,102386.41
2022-10-11T20:13:45.870Z,102372.38
2022-10-11T20:16:43.024Z,102358.59
2022-10-11T20:19:40.420Z,102360.25
2022-10-11T20:22:37.888Z,102363.81
2022-10-11T20:25:34.896Z,102369.00
2022-10-11T20:28:32.916Z,102366.31
2022-10-11T20:31:31.603Z,102366.75
2022-10-11T20:34:29.393Z,102362.56
2022-10-11T20:37:27.039Z,102354.47
2022-10-11T20:40:23.903Z,102364.88
2022-10-11T20:43:21.253Z,102360.88
2022-10-11T20:46:19.214Z,102361.47
2022-10-11T20:49:16.317Z,102352.19
2022-10-11T20:52:13.366Z,102357.16
2022-10-11T20:55:10.807Z,102358.34
2022-10-11T20:58:07.756Z,102368.19
2022-10-11T21:01:12.652Z,102368.22
2022-10-11T21:04:14.558Z,102358.81
2022-10-11T21:07:12.388Z,102352.16
2022-10-11T21:10:10.086Z,102353.66
2022-10-11T21:13:06.888Z,102362.19
2022-10-11T21:16:10.548Z,102376.44
2022-10-11T21:19:10.640Z,102363.72
2022-10-11T21:22:07.811Z,102371.09
2022-10-11T21:25:05.492Z,102373.03
2022-10-11T21:28:03.754Z,102376.09
2022-10-11T21:31:08.220Z,102373.94
2022-10-11T21:34:06.785Z,102360.41
2022-10-11T21:37:03.847Z,102343.78
2022-10-11T21:40:01.269Z,102352.19
2022-10-11T21:42:57.891Z,102356.81
2022-10-11T21:45:54.682Z,102346.25
2022-10-11T21:48:53.391Z,102357.75
2022-10-11T21:51:50.993Z,102358.81
2022-10-11T21:54:47.826Z,102363.41
2022-10-11T21:57:45.014Z,102359.22
2022-10-11T22:00:41.807Z,102363.81
2022-10-11T22:03:39.098Z,102354.13
2022-10-11T22:06:36.643Z,102351.75
2022-10-11T22:09:36.638Z,102371.34
2022-10-11T22:12:34.112Z,102363.31
2022-10-11T22:15:35.579Z,102366.16
2022-10-11T22:18:33.825Z,102380.31
2022-10-11T22:21:30.991Z,102374.91
2022-10-11T22:24:28.787Z,102360.19
2022-10-11T22:27:25.831Z,102347.78
2022-10-11T22:30:22.982Z,102358.59
2022-10-11T22:33:19.805Z,102356.28
2022-10-11T22:36:19.007Z,102363.06
2022-10-11T22:39:16.211Z,102368.72
2022-10-11T22:42:12.974Z,102360.34
2022-10-11T22:45:10.146Z,102350.31
2022-10-11T22:48:06.636Z,102358.91
2022-10-11T22:51:04.050Z,102364.00
2022-10-11T22:54:00.946Z,102365.78
2022-10-11T22:56:57.984Z,102378.94
2022-10-11T22:59:55.129Z,102365.03
2022-10-11T23:02:52.330Z,102354.28
2022-10-11T23:05:56.099Z,102341.50
2022-10-11T23:08:52.854Z,102342.38
2022-10-11T23:11:49.699Z,102348.97
2022-10-11T23:14:47.027Z,102352.31
2022-10-11T23:17:44.001Z,102346.97
2022-10-11T23:20:40.827Z,102343.25
2022-10-11T23:23:39.833Z,102347.81
2022-10-11T23:26:37.195Z,102356.69
2022-10-11T23:29:33.990Z,102339.47
2022-10-11T23:32:31.097Z,102343.84
2022-10-11T23:35:27.977Z,102346.66
2022-10-11T23:38:24.789Z,102340.81
2022-10-11T23:41:22.619Z,102346.41
2022-10-11T23:44:19.788Z,102350.00
2022-10-11T23:47:16.930Z,102352.00
2022-10-11T23:50:13.877Z,102347.41
2022-10-11T23:53:13.204Z,102357.41
2022-10-11T23:56:09.858Z,102349.66
2022-10-11T23:59:07.327Z,102358.63
